createdAt,value
2023-03-21T00:01:53.686Z,10.70
2023-03-21T00:04:26.001Z,11.43
2023-03-21T00:06:53.617Z,14.30
2023-03-21T00:09:21.500Z,10.03
2023-03-21T00:11:48.409Z,9.80
2023-03-21T00:14:18.862Z,8.57
2023-03-21T00:16:50.836Z,11.07
2023-03-21T00:19:20.829Z,11.30
2023-03-21T00:22:05.499Z,10.90
2023-03-21T00:24:34.092Z,10.93
2023-03-21T00:27:26.265Z,11.40
2023-03-21T00:29:51.704Z,12.37
2023-03-21T00:32:20.950Z,8.33
2023-03-21T00:35:00.358Z,11.23
2023-03-21T00:37:29.310Z,12.63
2023-03-21T00:39:56.130Z,14.80
2023-03-21T00:42:23.069Z,11.00
2023-03-21T00:44:49.925Z,12.30
2023-03-21T00:47:16.795Z,12.37
2023-03-21T00:49:43.576Z,10.47
2023-03-21T00:52:27.373Z,13.23
2023-03-21T00:54:57.987Z,11.47
2023-03-21T00:57:38.187Z,14.00
2023-03-21T01:00:09.694Z,15.70
2023-03-21T01:02:37.947Z,15.27
2023-03-21T01:05:05.660Z,17.97
2023-03-21T01:07:32.518Z,14.97
2023-03-21T01:09:59.241Z,10.97
2023-03-21T01:12:26.130Z,15.30
2023-03-21T01:14:52.976Z,11.53
2023-03-21T01:17:19.767Z,17.87
2023-03-21T01:19:51.866Z,12.47
2023-03-21T01:22:19.817Z,12.80
2023-03-21T01:24:55.206Z,12.70
2023-03-21T01:27:25.489Z,13.47
2023-03-21T01:29:52.313Z,12.30
2023-03-21T01:32:19.311Z,13.10
2023-03-21T01:34:46.300Z,11.33
2023-03-21T01:37:14.502Z,10.20
2023-03-21T01:39:46.755Z,10.00
2023-03-21T01:42:14.435Z,11.73
2023-03-21T01:44:52.749Z,11.07
2023-03-21T01:47:19.841Z,13.27
2023-03-21T01:49:53.750Z,14.47
2023-03-21T01:52:41.857Z,14.40
2023-03-21T01:55:19.321Z,13.30
2023-03-21T01:58:05.966Z,14.87
2023-03-21T02:00:56.871Z,13.90
2023-03-21T02:03:51.594Z,13.70
2023-03-21T02:06:51.037Z,12.53
2023-03-21T02:09:34.639Z,12.13
2023-03-21T02:12:03.928Z,15.03
2023-03-21T02:14:34.573Z,17.60
2023-03-21T02:17:24.151Z,14.43
2023-03-21T02:20:26.511Z,14.07
2023-03-21T02:23:22.082Z,15.87
2023-03-21T02:26:41.292Z,13.30
2023-03-21T02:29:26.308Z,12.77
2023-03-21T02:32:20.213Z,15.67
2023-03-21T02:35:09.230Z,18.80
2023-03-21T02:37:46.776Z,10.93
2023-03-21T02:40:28.420Z,14.83
2023-03-21T02:43:22.648Z,13.90
2023-03-21T02:46:18.544Z,16.57
2023-03-21T02:49:06.938Z,12.70
2023-03-21T02:51:35.818Z,13.80
2023-03-21T02:54:28.320Z,14.77
2023-03-21T02:56:58.218Z,13.70
2023-03-21T02:59:26.969Z,16.33
2023-03-21T03:01:56.545Z,10.40
2023-03-21T03:04:27.442Z,13.77
2023-03-21T03:07:17.813Z,13.80
2023-03-21T03:10:29.189Z,14.80
2023-03-21T03:13:32.302Z,12.17
2023-03-21T03:16:25.777Z,12.80
2023-03-21T03:18:55.722Z,13.20
2023-03-21T03:21:48.686Z,14.33
2023-03-21T03:24:16.689Z,16.67
2023-03-21T03:27:02.410Z,16.13
2023-03-21T03:29:33.748Z,14.03
2023-03-21T03:32:12.087Z,14.10
2023-03-21T03:34:45.037Z,14.53
2023-03-21T03:37:16.315Z,12.23
2023-03-21T03:39:53.549Z,13.47
2023-03-21T03:42:28.752Z,14.40
2023-03-21T03:45:09.481Z,13.63
2023-03-21T03:47:56.766Z,13.43
2023-03-21T03:50:48.471Z,14.83
2023-03-21T03:53:21.919Z,15.37
2023-03-21T03:55:52.329Z,12.10
2023-03-21T03:58:24.778Z,12.67
2023-03-21T04:00:56.790Z,10.23
2023-03-21T04:03:24.116Z,13.80
2023-03-21T04:05:51.924Z,15.17
2023-03-21T04:08:18.799Z,16.77
2023-03-21T04:10:51.504Z,15.87
2023-03-21T04:13:18.702Z,17.77
2023-03-21T04:16:05.195Z,19.17
2023-03-21T04:18:32.812Z,13.43
2023-03-21T04:20:59.703Z,11.63
2023-03-21T04:23:29.972Z,12.73
2023-03-21T04:25:57.471Z,12.13
2023-03-21T04:28:36.948Z,19.83
2023-03-21T04:31:27.230Z,15.87
2023-03-21T04:34:12.571Z,12.93
2023-03-21T04:36:45.906Z,15.83
2023-03-21T04:39:14.925Z,17.87
2023-03-21T04:41:45.670Z,11.50
2023-03-21T04:44:14.639Z,12.80
2023-03-21T04:46:41.884Z,16.07
2023-03-21T04:49:10.588Z,17.57
2023-03-21T04:51:37.535Z,14.53
2023-03-21T04:56:36.083Z,15.77
2023-03-21T04:59:13.461Z,12.67
2023-03-21T05:01:41.275Z,15.83
2023-03-21T05:04:09.923Z,20.40
2023-03-21T05:06:37.290Z,11.37
2023-03-21T05:09:06.997Z,16.80
2023-03-21T05:11:37.843Z,9.73
2023-03-21T05:14:06.743Z,13.60
2023-03-21T05:16:34.591Z,11.33
2023-03-21T05:19:04.939Z,7.97
2023-03-21T05:21:41.960Z,14.53
2023-03-21T05:24:19.351Z,13.37
2023-03-21T05:26:50.395Z,11.93
2023-03-21T05:29:19.653Z,13.53
2023-03-21T05:31:53.154Z,9.00
2023-03-21T05:34:20.707Z,10.63
2023-03-21T05:36:47.943Z,11.47
2023-03-21T05:39:14.782Z,13.50
2023-03-21T05:41:49.560Z,15.03
2023-03-21T05:44:16.633Z,10.83
2023-03-21T05:46:45.032Z,12.27
2023-03-21T05:49:12.861Z,7.20
2023-03-21T05:51:41.163Z,9.90
2023-03-21T05:54:08.151Z,9.80
2023-03-21T05:56:35.379Z,6.83
2023-03-21T05:59:04.985Z,12.27
2023-03-21T06:01:37.077Z,7.07
2023-03-21T06:04:12.629Z,10.47
2023-03-21T06:06:40.469Z,9.70
2023-03-21T06:09:07.377Z,8.57
2023-03-21T06:11:38.866Z,8.40
2023-03-21T06:14:21.282Z,8.50
2023-03-21T06:17:13.537Z,7.67
2023-03-21T06:19:46.677Z,8.23
2023-03-21T06:22:28.462Z,7.40
2023-03-21T06:24:55.578Z,8.23
2023-03-21T06:27:22.976Z,10.60
2023-03-21T06:29:53.307Z,7.07
2023-03-21T06:32:21.259Z,9.60
2023-03-21T06:34:51.944Z,10.17
2023-03-21T06:37:19.740Z,7.03
2023-03-21T06:39:47.048Z,7.43
2023-03-21T06:42:14.985Z,4.23
2023-03-21T06:44:42.419Z,5.73
2023-03-21T06:47:13.815Z,4.47
2023-03-21T06:49:43.843Z,4.10
2023-03-21T06:52:12.189Z,4.17
2023-03-21T06:54:39.816Z,3.97
2023-03-21T06:57:15.454Z,4.87
2023-03-21T06:59:42.310Z,4.43
2023-03-21T07:02:21.060Z,4.47
2023-03-21T07:04:57.762Z,3.73
2023-03-21T07:07:29.738Z,4.10
2023-03-21T07:09:57.239Z,3.93
2023-03-21T07:12:25.969Z,3.90
2023-03-21T07:15:24.923Z,4.77
2023-03-21T07:17:52.464Z,5.00
2023-03-21T07:20:19.533Z,5.27
2023-03-21T07:22:46.301Z,5.20
2023-03-21T07:25:14.053Z,3.53
2023-03-21T07:27:41.532Z,4.17
2023-03-21T07:30:10.156Z,4.07
2023-03-21T07:32:38.042Z,3.77
2023-03-21T07:35:13.485Z,2.90
2023-03-21T07:37:41.900Z,5.30
2023-03-21T07:40:10.295Z,3.20
2023-03-21T07:42:41.873Z,4.03
2023-03-21T07:45:12.806Z,3.63
2023-03-21T07:47:39.743Z,4.50
2023-03-21T07:50:06.984Z,4.03
2023-03-21T07:52:33.848Z,4.50
2023-03-21T07:55:00.604Z,4.00
2023-03-21T07:57:27.535Z,3.50
2023-03-21T07:59:54.326Z,4.67
2023-03-21T08:02:21.593Z,3.73
2023-03-21T08:04:48.800Z,3.40
2023-03-21T08:07:15.947Z,3.43
2023-03-21T08:09:45.769Z,3.50
2023-03-21T08:12:12.608Z,6.13
2023-03-21T08:14:39.534Z,5.20
2023-03-21T08:17:09.286Z,3.43
2023-03-21T08:19:37.432Z,6.03
2023-03-21T08:22:06.708Z,5.30
2023-03-21T08:24:34.166Z,4.30
2023-03-21T08:27:02.079Z,5.17
2023-03-21T08:29:29.044Z,4.17
2023-03-21T08:31:56.132Z,4.80
2023-03-21T08:34:23.157Z,5.30
2023-03-21T08:36:49.995Z,5.50
2023-03-21T08:39:16.767Z,5.10
2023-03-21T08:41:43.526Z,5.33
2023-03-21T08:44:10.780Z,4.97
2023-03-21T08:46:37.760Z,4.17
2023-03-21T08:49:04.637Z,3.57
2023-03-21T08:51:31.798Z,4.77
2023-03-21T08:53:58.563Z,5.63
2023-03-21T08:56:25.434Z,5.67
2023-03-21T08:58:52.298Z,4.80
2023-03-21T09:01:19.088Z,3.70
2023-03-21T09:03:46.026Z,4.83
2023-03-21T09:06:14.308Z,3.80
2023-03-21T09:08:46.242Z,3.47
2023-03-21T09:11:13.105Z,4.50
2023-03-21T09:13:40.036Z,5.07
2023-03-21T09:16:07.301Z,3.80
2023-03-21T09:18:48.973Z,4.23
2023-03-21T09:21:18.519Z,4.23
2023-03-21T09:23:46.151Z,3.57
2023-03-21T09:26:13.723Z,3.83
2023-03-21T09:28:40.930Z,3.37
2023-03-21T09:31:12.227Z,4.20
2023-03-21T09:33:43.346Z,3.20
2023-03-21T09:36:14.122Z,2.50
2023-03-21T09:38:45.682Z,3.70
2023-03-21T09:41:34.052Z,2.87
2023-03-21T09:44:27.748Z,3.20
2023-03-21T09:47:21.624Z,3.77
2023-03-21T09:49:56.572Z,3.80
2023-03-21T09:52:34.363Z,3.40
2023-03-21T09:55:02.540Z,2.77
2023-03-21T09:57:43.110Z,4.37
2023-03-21T10:00:29.498Z,4.63
2023-03-21T10:03:03.083Z,2.83
2023-03-21T10:05:32.663Z,3.70
2023-03-21T10:08:19.338Z,3.73
2023-03-21T10:10:51.306Z,2.50
2023-03-21T10:13:26.568Z,4.40
2023-03-21T10:16:14.152Z,3.30
2023-03-21T10:18:43.005Z,3.60
2023-03-21T10:21:43.107Z,3.87
2023-03-21T10:24:06.434Z,5.07
2023-03-21T10:26:33.307Z,2.90
2023-03-21T10:29:03.217Z,2.60
2023-03-21T10:31:31.402Z,2.80
2023-03-21T10:34:02.971Z,3.90
2023-03-21T10:36:32.029Z,2.67
2023-03-21T10:39:21.779Z,3.77
2023-03-21T10:41:48.641Z,3.10
2023-03-21T10:44:18.303Z,3.07
2023-03-21T10:47:19.224Z,3.00
2023-03-21T10:50:06.339Z,2.90
2023-03-21T10:52:34.938Z,4.07
2023-03-21T10:55:21.331Z,2.50
2023-03-21T10:57:48.940Z,3.17
2023-03-21T11:00:22.919Z,2.40
2023-03-21T11:02:51.693Z,3.50
2023-03-21T11:05:33.245Z,2.40
2023-03-21T11:08:12.202Z,2.83
2023-03-21T11:11:06.876Z,2.83
2023-03-21T11:13:39.211Z,3.23
2023-03-21T11:16:10.121Z,4.17
2023-03-21T11:18:42.961Z,2.30
2023-03-21T11:21:14.701Z,3.63
2023-03-21T11:23:48.434Z,3.33
2023-03-21T11:26:30.899Z,3.30
2023-03-21T11:28:58.489Z,3.93
2023-03-21T11:31:41.516Z,4.80
2023-03-21T11:34:09.735Z,4.77
2023-03-21T11:36:41.589Z,4.20
2023-03-21T11:39:11.471Z,4.90
2023-03-21T11:41:41.415Z,5.23
2023-03-21T11:44:28.342Z,3.83
2023-03-21T11:46:55.561Z,4.07
2023-03-21T11:49:24.125Z,4.50
2023-03-21T11:51:57.204Z,3.07
2023-03-21T11:54:49.347Z,3.77
2023-03-21T11:57:31.452Z,3.83
2023-03-21T11:59:58.200Z,4.97
2023-03-21T12:02:45.687Z,4.13
2023-03-21T12:05:23.542Z,5.67
2023-03-21T12:08:08.938Z,4.77
2023-03-21T12:10:47.718Z,6.23
2023-03-21T12:13:47.711Z,4.90
2023-03-21T12:16:14.634Z,4.17
2023-03-21T12:19:07.989Z,4.90
2023-03-21T12:22:12.925Z,4.43
2023-03-21T12:24:51.733Z,8.43
2023-03-21T12:27:43.131Z,4.67
2023-03-21T12:30:16.865Z,7.47
2023-03-21T12:32:58.337Z,4.23
2023-03-21T12:35:48.563Z,6.40
2023-03-21T12:38:22.746Z,5.00
2023-03-21T12:41:11.613Z,4.80
2023-03-21T12:43:46.926Z,4.27
2023-03-21T12:46:34.857Z,4.93
2023-03-21T12:49:26.906Z,6.73
2023-03-21T12:52:08.361Z,4.93
2023-03-21T12:54:56.845Z,3.57
2023-03-21T12:57:36.846Z,5.43
2023-03-21T13:00:26.485Z,4.27
2023-03-21T13:03:02.800Z,4.37
2023-03-21T13:05:48.170Z,4.57
2023-03-21T13:08:36.784Z,4.07
2023-03-21T13:11:06.715Z,3.20
2023-03-21T13:13:46.409Z,5.03
2023-03-21T13:16:24.316Z,3.60
2023-03-21T13:19:31.044Z,3.97
2023-03-21T13:22:08.980Z,3.07
2023-03-21T13:24:48.571Z,3.73
2023-03-21T13:27:29.459Z,5.67
2023-03-21T13:30:01.013Z,3.30
2023-03-21T13:32:35.398Z,2.93
2023-03-21T13:35:34.304Z,3.63
2023-03-21T13:38:28.958Z,5.23
2023-03-21T13:41:13.043Z,4.07
2023-03-21T13:43:53.504Z,3.53
2023-03-21T13:46:26.230Z,3.77
2023-03-21T13:48:58.892Z,3.30
2023-03-21T13:51:29.502Z,4.90
2023-03-21T13:54:00.552Z,5.43
2023-03-21T13:56:27.915Z,3.07
2023-03-21T13:58:59.234Z,2.40
2023-03-21T14:01:31.964Z,4.57
2023-03-21T14:04:24.028Z,3.30
2023-03-21T14:06:59.949Z,3.30
2023-03-21T14:09:35.059Z,2.60
2023-03-21T14:12:07.588Z,3.17
2023-03-21T14:14:40.543Z,4.40
2023-03-21T14:17:14.568Z,5.03
2023-03-21T14:19:41.523Z,3.93
2023-03-21T14:22:13.735Z,3.03
2023-03-21T14:24:41.276Z,3.90
2023-03-21T14:27:08.920Z,3.00
2023-03-21T14:29:35.875Z,3.27
2023-03-21T14:32:05.647Z,3.23
2023-03-21T14:34:35.736Z,4.47
2023-03-21T14:37:02.561Z,4.77
2023-03-21T14:39:31.908Z,3.17
2023-03-21T14:42:07.053Z,7.93
2023-03-21T14:44:57.859Z,3.77
2023-03-21T14:47:30.120Z,4.00
2023-03-21T14:49:58.157Z,3.20
2023-03-21T14:52:33.038Z,3.37
2023-03-21T14:55:20.249Z,2.40
2023-03-21T14:57:48.652Z,3.17
2023-03-21T15:00:25.434Z,3.80
2023-03-21T15:02:53.974Z,2.80
2023-03-21T15:05:31.927Z,5.47
2023-03-21T15:08:03.276Z,2.33
2023-03-21T15:10:31.830Z,2.03
2023-03-21T15:13:13.709Z,5.07
2023-03-21T15:15:41.630Z,2.77
2023-03-21T15:18:11.198Z,4.03
2023-03-21T15:20:39.626Z,4.13
2023-03-21T15:23:15.660Z,4.60
2023-03-21T15:25:43.269Z,4.80
2023-03-21T15:28:14.242Z,4.40
2023-03-21T15:30:48.351Z,3.93
2023-03-21T15:33:15.466Z,2.63
2023-03-21T15:35:46.839Z,4.70
2023-03-21T15:38:29.833Z,6.33
2023-03-21T15:41:18.713Z,2.97
2023-03-21T15:43:46.664Z,3.50
2023-03-21T15:46:16.415Z,3.37
2023-03-21T15:48:43.736Z,4.80
2023-03-21T15:51:20.963Z,5.50
2023-03-21T15:53:48.347Z,2.07
2023-03-21T15:56:16.573Z,4.90
2023-03-21T15:58:45.227Z,2.30
2023-03-21T16:01:20.255Z,3.97
2023-03-21T16:03:55.021Z,3.37
2023-03-21T16:06:29.376Z,3.40
2023-03-21T16:09:14.238Z,5.07
2023-03-21T16:11:42.508Z,4.40
2023-03-21T16:14:09.915Z,3.60
2023-03-21T16:16:37.608Z,5.90
2023-03-21T16:19:04.632Z,7.03
2023-03-21T16:21:33.695Z,6.93
2023-03-21T16:24:00.783Z,5.20
2023-03-21T16:26:33.208Z,2.97
2023-03-21T16:29:00.206Z,3.77
2023-03-21T16:31:30.397Z,8.10
2023-03-21T16:33:57.400Z,3.17
2023-03-21T16:36:27.058Z,3.57
2023-03-21T16:38:55.659Z,5.97
2023-03-21T16:41:24.723Z,3.37
2023-03-21T16:43:53.351Z,2.80
2023-03-21T16:46:22.883Z,8.87
2023-03-21T16:48:53.342Z,3.27
2023-03-21T16:51:25.908Z,3.67
2023-03-21T16:53:53.697Z,1.60
2023-03-21T16:56:24.841Z,2.77
2023-03-21T16:58:55.954Z,2.73
2023-03-21T17:01:27.654Z,6.13
2023-03-21T17:03:54.596Z,7.37
2023-03-21T17:06:25.009Z,7.87
2023-03-21T17:08:53.002Z,5.03
2023-03-21T17:11:22.512Z,3.03
2023-03-21T17:13:54.432Z,8.53
2023-03-21T17:16:26.767Z,7.57
2023-03-21T17:18:54.801Z,6.50
2023-03-21T17:21:24.588Z,5.53
2023-03-21T17:23:51.912Z,5.93
2023-03-21T17:26:25.385Z,6.57
2023-03-21T17:28:55.316Z,8.17
2023-03-21T17:31:24.753Z,5.90
2023-03-21T17:33:51.901Z,3.83
2023-03-21T17:36:23.677Z,3.27
2023-03-21T17:38:52.809Z,6.03
2023-03-21T17:41:20.850Z,3.60
2023-03-21T17:43:47.711Z,3.70
2023-03-21T17:46:23.106Z,2.43
2023-03-21T17:48:50.000Z,8.03
2023-03-21T17:51:17.721Z,8.50
2023-03-21T17:53:46.051Z,13.73
2023-03-21T17:56:21.769Z,17.50
2023-03-21T17:58:48.823Z,8.03
2023-03-21T18:01:15.781Z,9.03
2023-03-21T18:03:42.554Z,11.13
2023-03-21T18:06:20.687Z,6.47
2023-03-21T18:08:48.952Z,5.73
2023-03-21T18:11:17.022Z,5.17
2023-03-21T18:13:44.818Z,6.77
2023-03-21T18:16:21.339Z,6.53
2023-03-21T18:18:48.636Z,3.77
2023-03-21T18:21:19.251Z,6.67
2023-03-21T18:23:47.390Z,2.20
2023-03-21T18:26:19.747Z,4.20
2023-03-21T18:29:19.450Z,4.83
2023-03-21T18:31:34.585Z,5.37
2023-03-21T18:34:01.507Z,5.57
2023-03-21T18:36:29.146Z,2.63
2023-03-21T18:38:56.846Z,5.47
2023-03-21T18:41:23.873Z,4.00
2023-03-21T18:44:14.285Z,3.57
2023-03-21T18:46:40.548Z,6.33
2023-03-21T18:49:48.151Z,5.30
2023-03-21T18:51:54.856Z,3.00
2023-03-21T18:54:21.648Z,3.27
2023-03-21T18:57:34.164Z,9.47
2023-03-21T18:59:39.273Z,6.13
2023-03-21T19:02:07.242Z,5.13
2023-03-21T19:04:34.304Z,2.07
2023-03-21T19:07:01.296Z,3.93
2023-03-21T19:09:31.936Z,2.37
2023-03-21T19:12:00.719Z,6.93
2023-03-21T19:14:27.983Z,12.93
2023-03-21T19:17:37.781Z,13.63
2023-03-21T19:19:43.643Z,15.07
2023-03-21T19:22:11.296Z,4.13
2023-03-21T19:24:39.653Z,7.53
2023-03-21T19:27:07.017Z,5.07
2023-03-21T19:29:34.026Z,5.00
2023-03-21T19:32:01.114Z,8.53
2023-03-21T19:34:29.403Z,6.17
2023-03-21T19:36:57.357Z,3.60
2023-03-21T19:39:27.442Z,10.07
2023-03-21T19:42:02.942Z,8.80
2023-03-21T19:44:39.706Z,3.90
2023-03-21T19:47:07.181Z,6.50
2023-03-21T19:49:56.481Z,4.87
2023-03-21T19:52:21.455Z,7.97
2023-03-21T19:54:48.363Z,5.97
2023-03-21T19:57:15.671Z,5.93
2023-03-21T19:59:42.597Z,8.20
2023-03-21T20:02:33.894Z,9.10
2023-03-21T20:04:59.282Z,10.73
2023-03-21T20:07:26.094Z,10.67
2023-03-21T20:09:55.342Z,12.27
2023-03-21T20:12:23.523Z,11.23
2023-03-21T20:14:55.988Z,8.13
2023-03-21T20:17:31.848Z,6.80
2023-03-21T20:19:59.872Z,4.43
2023-03-21T20:22:56.099Z,13.30
2023-03-21T20:25:14.188Z,7.40
2023-03-21T20:27:42.049Z,8.77
2023-03-21T20:30:17.141Z,7.23
2023-03-21T20:32:46.195Z,4.73
2023-03-21T20:35:21.065Z,9.63
2023-03-21T20:37:54.418Z,7.50
2023-03-21T20:40:21.465Z,11.17
2023-03-21T20:42:48.920Z,7.33
2023-03-21T20:45:17.063Z,7.40
2023-03-21T20:47:44.362Z,4.73
2023-03-21T20:50:22.105Z,6.30
2023-03-21T20:53:04.909Z,10.10
2023-03-21T20:55:34.194Z,11.07
2023-03-21T20:58:02.224Z,10.43
2023-03-21T21:00:29.645Z,8.83
2023-03-21T21:02:57.785Z,7.87
2023-03-21T21:05:30.801Z,5.93
2023-03-21T21:08:01.019Z,4.83
2023-03-21T21:10:28.813Z,6.70
2023-03-21T21:12:55.807Z,7.90
2023-03-21T21:15:22.637Z,8.73
2023-03-21T21:18:07.138Z,8.17
2023-03-21T21:20:35.419Z,6.37
2023-03-21T21:23:02.740Z,6.87
2023-03-21T21:25:32.824Z,7.27
2023-03-21T21:28:01.781Z,5.83
2023-03-21T21:30:29.497Z,9.97
2023-03-21T21:32:59.493Z,6.63
2023-03-21T21:35:26.413Z,6.30
2023-03-21T21:37:53.626Z,10.10
2023-03-21T21:40:23.195Z,4.93
2023-03-21T21:42:50.124Z,8.40
2023-03-21T21:45:18.908Z,8.37
2023-03-21T21:47:46.438Z,9.13
2023-03-21T21:50:14.301Z,7.07
2023-03-21T21:52:43.725Z,5.87
2023-03-21T21:55:10.880Z,5.80
2023-03-21T21:57:39.683Z,6.37
2023-03-21T22:00:12.834Z,7.67
2023-03-21T22:02:40.757Z,8.70
2023-03-21T22:05:08.931Z,8.60
2023-03-21T22:07:37.394Z,6.43
2023-03-21T22:10:05.107Z,9.63
2023-03-21T22:12:32.314Z,11.53
2023-03-21T22:14:59.171Z,7.87
2023-03-21T22:17:26.216Z,7.27
2023-03-21T22:20:05.204Z,9.97
2023-03-21T22:22:33.959Z,6.60
2023-03-21T22:25:00.741Z,5.93
2023-03-21T22:27:27.553Z,7.57
2023-03-21T22:29:54.313Z,6.77
2023-03-21T22:32:21.326Z,5.53
2023-03-21T22:34:48.218Z,6.80
2023-03-21T22:37:15.336Z,8.70
2023-03-21T22:39:42.289Z,15.83
2023-03-21T22:42:09.118Z,10.73
2023-03-21T22:44:36.045Z,8.70
2023-03-21T22:47:05.584Z,8.33
2023-03-21T22:49:32.934Z,7.10
2023-03-21T22:52:00.649Z,4.40
2023-03-21T22:54:27.770Z,6.97
2023-03-21T22:56:57.025Z,8.47
2023-03-21T22:59:24.542Z,8.73
2023-03-21T23:01:51.518Z,8.13
2023-03-21T23:04:19.070Z,4.50
2023-03-21T23:06:46.372Z,6.80
2023-03-21T23:09:13.205Z,8.37
2023-03-21T23:11:40.423Z,7.57
2023-03-21T23:14:08.861Z,7.63
2023-03-21T23:16:38.310Z,10.67
2023-03-21T23:19:05.716Z,5.93
2023-03-21T23:21:34.521Z,8.83
2023-03-21T23:24:01.372Z,19.73
2023-03-21T23:26:28.927Z,4.87
2023-03-21T23:28:55.933Z,7.33
2023-03-21T23:31:25.353Z,8.27
2023-03-21T23:33:52.807Z,6.43
2023-03-21T23:36:21.238Z,7.90
2023-03-21T23:38:48.056Z,5.90
2023-03-21T23:41:17.510Z,8.83
2023-03-21T23:43:44.504Z,9.60
2023-03-21T23:46:12.924Z,8.57
2023-03-21T23:48:41.392Z,9.93
2023-03-21T23:51:09.679Z,7.03
2023-03-21T23:53:37.494Z,6.80
2023-03-21T23:56:12.048Z,10.50
2023-03-21T23:58:39.156Z,7.70
